To NAV CANADA Home Page Login to a new session Search on AWWS site Feedback and Comments Disclaimer Vers la page française équivalente Tips FAQ What's new on the site To the Forecasts and Observations / NOTAM section To "File a Flight Plan" website Publications and other links Update of the User's profile FIC Telephone Numbers My Weather Data Folder Route Weather Data Regional Weather Data Local Weather Data To the Forecasts and Observations / NOTAM section
Request Generated 08/22/2017 at 01:43:43 UTC . Weather information available at that time is displayed.

METAR/TAF

THUNDER BAY/ON    (show WxCam)

METAR CYQT 220100Z 00000KT 20SM OVC110 17/15 A2985 RMK AC8 SLP114
DENSITY ALT 1200FT=
METAR CYQT 220000Z VRB02KT 20SM OVC100 18/16 A2989 RMK AC8 SLP126
DENSITY ALT 1200FT=
METAR CYQT 212300Z 03004KT 20SM BKN100 OVC270 19/14 A2988 RMK AC7CI1
PRESFR SLP123 DENSITY ALT 1300FT=

TAF CYQT 220138Z 2202/2214 VRB03KT P6SM OVC100 TEMPO 2202/2207 P6SM
-SHRA BKN030 OVC100
FM220700 VRB03KT P6SM SCT020 BKN080 TEMPO 2209/2214 P6SM -SHRA
BKN020 OVC080
BECMG 2211/2213 32012G22KT
RMK NXT FCST BY 220800Z=
Your time UTC time
Weather data provided by Environment Canada and NAV CANADA